Time;durP1;ratioP1;P1;durP2;ratioP2;P2;SDS_P1;SDS_P2;PMS_P1;PMS_P2;Temp;Humidity;BMP_temperature;BMP_pressure;BME280_temperature;BME280_humidity;BME280_pressure;Samples;Min_cycle;Max_cycle;Signal;HPM_P1;HPM_P2
2023/02/13 00:02:08;;;;;;;27.93;13.47;;;4.80;99.90;;;;;;5054090;28;20159;-64
2023/02/13 00:04:33;;;;;;;24.75;13.65;;;4.90;99.90;;;;;;5054070;28;20371;-64
2023/02/13 00:06:59;;;;;;;25.85;14.18;;;4.90;99.90;;;;;;5054422;28;20025;-63
2023/02/13 00:09:25;;;;;;;25.30;14.10;;;4.80;99.90;;;;;;5054638;28;20033;-63
2023/02/13 00:11:50;;;;;;;29.33;13.93;;;4.80;99.90;;;;;;5053401;28;20028;-64
2023/02/13 00:14:16;;;;;;;27.00;13.83;;;4.80;99.90;;;;;;5054412;28;20083;-63
2023/02/13 00:16:41;;;;;;;26.57;13.87;;;4.80;99.90;;;;;;5036163;28;20107;-63
2023/02/13 00:19:07;;;;;;;26.37;14.93;;;4.70;99.90;;;;;;5053692;28;20031;-63
2023/02/13 00:21:32;;;;;;;28.63;15.00;;;4.70;99.90;;;;;;5053718;28;20041;-65
2023/02/13 00:23:58;;;;;;;26.07;13.67;;;4.70;99.90;;;;;;5035957;28;20081;-64
2023/02/13 00:26:24;;;;;;;28.30;14.50;;;4.70;99.90;;;;;;5055229;28;20063;-64
2023/02/13 00:28:49;;;;;;;29.27;13.87;;;4.70;99.90;;;;;;5054924;28;20033;-64
2023/02/13 00:31:17;;;;;;;25.67;14.80;;;4.60;99.90;;;;;;5053883;28;20275;-64
2023/02/13 00:33:43;;;;;;;30.27;15.30;;;4.60;99.90;;;;;;5053807;28;20029;-64
2023/02/13 00:36:11;;;;;;;28.87;16.37;;;4.60;99.90;;;;;;5037560;28;20040;-66
2023/02/13 00:38:38;;;;;;;29.48;15.30;;;4.50;99.90;;;;;;5056213;28;20025;-64
2023/02/13 00:41:05;;;;;;;29.30;15.18;;;4.50;99.90;;;;;;5056259;28;20116;-64
2023/02/13 00:43:31;;;;;;;30.63;15.35;;;4.50;99.90;;;;;;5038997;28;20046;-65
2023/02/13 00:45:57;;;;;;;31.52;16.10;;;4.50;99.90;;;;;;5054842;28;20053;-64
2023/02/13 00:48:23;;;;;;;32.55;16.65;;;4.50;99.90;;;;;;5054053;28;20436;-65
2023/02/13 00:50:51;;;;;;;28.20;15.60;;;4.40;99.90;;;;;;5053427;28;20024;-64
2023/02/13 00:53:17;;;;;;;29.95;15.85;;;4.40;99.90;;;;;;5053606;28;20013;-64
2023/02/13 00:55:43;;;;;;;29.75;15.55;;;4.40;99.90;;;;;;5052271;28;20021;-64
2023/02/13 00:58:08;;;;;;;31.23;17.70;;;4.30;99.90;;;;;;5053558;28;20029;-64
2023/02/13 01:00:34;;;;;;;35.13;18.13;;;4.30;99.90;;;;;;5053598;28;20101;-64
2023/02/13 01:02:59;;;;;;;33.73;16.77;;;4.20;99.90;;;;;;5051557;28;20052;-65
2023/02/13 01:05:26;;;;;;;32.43;17.73;;;4.20;99.90;;;;;;5053622;28;20493;-63
2023/02/13 01:07:52;;;;;;;33.58;17.60;;;4.20;99.90;;;;;;5053492;28;20017;-64
2023/02/13 01:10:17;;;;;;;33.40;17.10;;;4.20;99.90;;;;;;5053285;28;20027;-65
2023/02/13 01:12:43;;;;;;;33.50;17.53;;;4.20;99.90;;;;;;5053178;28;20052;-65
2023/02/13 01:15:09;;;;;;;32.73;17.20;;;4.20;99.90;;;;;;5053171;28;20493;-64
2023/02/13 01:17:34;;;;;;;34.63;17.08;;;4.10;99.90;;;;;;5035283;28;20021;-64
2023/02/13 01:20:00;;;;;;;35.67;17.67;;;4.10;99.90;;;;;;5052885;28;20036;-64
2023/02/13 01:22:25;;;;;;;38.43;18.77;;;4.10;99.90;;;;;;5053171;28;20033;-64
2023/02/13 01:24:51;;;;;;;35.47;17.63;;;4.00;99.90;;;;;;5058964;28;20025;-64
2023/02/13 01:27:16;;;;;;;34.57;18.07;;;4.00;99.90;;;;;;5060195;28;20017;-64
2023/02/13 01:29:42;;;;;;;35.23;18.10;;;4.00;99.90;;;;;;5059881;28;20013;-64
2023/02/13 01:32:07;;;;;;;35.50;18.43;;;3.90;99.90;;;;;;5066147;28;20059;-65
2023/02/13 01:34:33;;;;;;;38.30;18.73;;;3.90;99.90;;;;;;5064636;28;20528;-65
2023/02/13 01:36:59;;;;;;;39.23;18.87;;;3.90;99.90;;;;;;5061438;28;20477;-65
2023/02/13 01:39:25;;;;;;;37.87;17.40;;;3.80;99.90;;;;;;5061597;28;20354;-66
2023/02/13 01:41:50;;;;;;;39.33;17.85;;;3.80;99.90;;;;;;5060741;28;20040;-64
2023/02/13 01:44:45;;;;;;;39.73;17.87;;;3.80;99.90;;;;;;5060084;28;20033;-64
2023/02/13 01:47:13;;;;;;;36.30;18.58;;;3.80;99.90;;;;;;5059367;28;20025;-64
2023/02/13 01:49:40;;;;;;;34.95;17.58;;;3.80;99.90;;;;;;5059331;28;20044;-64
2023/02/13 01:52:07;;;;;;;37.40;18.75;;;3.70;99.90;;;;;;5059406;28;20033;-64
2023/02/13 01:54:33;;;;;;;39.67;19.50;;;3.70;99.90;;;;;;5059428;28;20490;-65
2023/02/13 01:57:15;;;;;;;40.83;19.13;;;3.70;99.90;;;;;;5062362;28;20043;-65
2023/02/13 01:59:50;;;;;;;39.20;18.27;;;3.70;99.90;;;;;;5060692;28;20033;-64
2023/02/13 02:02:17;;;;;;;37.72;18.63;;;3.70;99.90;;;;;;5057899;28;20025;-65
2023/02/13 02:04:44;;;;;;;37.00;19.77;;;3.70;99.90;;;;;;5059017;28;20025;-65
2023/02/13 02:07:16;;;;;;;40.30;19.23;;;3.60;99.90;;;;;;5059290;28;20021;-64
2023/02/13 02:09:44;;;;;;;39.28;20.38;;;3.70;99.90;;;;;;5059680;28;20458;-64
2023/02/13 02:12:25;;;;;;;37.45;18.05;;;3.60;99.90;;;;;;5059046;28;20029;-64
2023/02/13 02:14:54;;;;;;;35.47;18.95;;;3.60;99.90;;;;;;5057836;28;20021;-66
2023/02/13 02:17:23;;;;;;;38.65;18.85;;;3.60;99.90;;;;;;5059146;28;20104;-64
2023/02/13 02:20:00;;;;;;;40.95;18.55;;;3.60;99.90;;;;;;5059006;28;20124;-63
2023/02/13 02:23:07;;;;;;;36.40;18.00;;;3.50;99.90;;;;;;5057613;28;20029;-63
2023/02/13 02:26:20;;;;;;;38.97;19.15;;;3.50;99.90;;;;;;5059393;28;20029;-63
2023/02/13 02:29:02;;;;;;;41.78;19.77;;;3.50;99.90;;;;;;5017470;28;20033;-63
2023/02/13 02:32:07;;;;;;;44.60;19.15;;;3.40;99.90;;;;;;5017288;28;20044;-63
2023/02/13 02:34:51;;;;;;;38.45;18.05;;;3.30;99.90;;;;;;5015740;28;20506;-62
2023/02/13 02:38:08;;;;;;;40.40;20.88;;;3.30;99.90;;;;;;5014422;28;20042;-64
2023/02/13 02:40:57;;;;;;;41.42;19.52;;;3.30;99.90;;;;;;5005373;28;20521;-64
2023/02/13 02:43:39;;;;;;;40.67;19.85;;;3.20;99.90;;;;;;5008989;28;20057;-64
2023/02/13 02:46:10;;;;;;;40.22;19.60;;;3.30;99.90;;;;;;5014993;28;20423;-64
2023/02/13 02:51:52;;;;;;;41.40;19.25;;;3.30;99.90;;;;;;5014885;28;20040;-64
2023/02/13 03:06:09;;;;;;;35.20;18.42;;;3.20;99.90;;;;;;5013860;28;20037;-64
2023/02/13 03:14:06;;;;;;;37.53;18.75;;;3.20;99.90;;;;;;5037944;28;20037;-64
2023/02/13 03:22:41;;;;;;;41.28;20.00;;;3.10;99.90;;;;;;5054595;28;20127;-64
2023/02/13 03:25:46;;;;;;;39.47;19.67;;;3.10;99.90;;;;;;5055040;28;20021;-64
2023/02/13 03:32:00;;;;;;;36.95;19.13;;;3.10;99.90;;;;;;5056208;28;20539;-64
2023/02/13 03:37:53;;;;;;;38.85;19.50;;;3.00;99.90;;;;;;5049156;28;20039;-65
2023/02/13 03:40:14;;;;;;;36.95;18.95;;;3.00;99.90;;;;;;5054813;28;20032;-63
2023/02/13 03:42:54;;;;;;;38.90;20.63;;;3.00;99.90;;;;;;5054983;28;20489;-64
2023/02/13 03:45:52;;;;;;;39.28;19.52;;;2.90;99.90;;;;;;5055118;28;20075;-63
2023/02/13 03:51:48;;;;;;;39.97;20.83;;;2.90;99.90;;;;;;5054545;28;20040;-64
2023/02/13 04:00:01;;;;;;;34.30;19.17;;;2.80;99.90;;;;;;5055230;28;20097;-64
2023/02/13 04:02:32;;;;;;;43.65;21.17;;;2.80;99.90;;;;;;5053345;28;20032;-64
2023/02/13 04:05:07;;;;;;;38.65;20.23;;;2.80;99.90;;;;;;5053993;28;20502;-64
2023/02/13 04:07:34;;;;;;;35.92;19.88;;;2.80;99.90;;;;;;5054510;28;20108;-64
2023/02/13 04:10:11;;;;;;;40.72;19.95;;;2.80;99.90;;;;;;5053999;28;20021;-64
2023/02/13 04:12:51;;;;;;;36.72;18.60;;;2.80;99.90;;;;;;5054175;28;20082;-64
2023/02/13 04:15:35;;;;;;;34.78;18.85;;;2.70;99.90;;;;;;5053994;28;20492;-64
2023/02/13 04:18:03;;;;;;;38.13;20.27;;;2.80;99.90;;;;;;5053895;28;20060;-64
2023/02/13 04:20:31;;;;;;;36.50;19.85;;;2.70;99.90;;;;;;5052229;28;20037;-64
2023/02/13 04:23:02;;;;;;;38.70;19.45;;;2.70;99.90;;;;;;5053576;28;20470;-64
2023/02/13 04:25:28;;;;;;;36.72;19.48;;;2.70;99.90;;;;;;5054004;28;20033;-65
2023/02/13 04:27:53;;;;;;;41.10;20.37;;;2.70;99.90;;;;;;5054019;28;20028;-63
2023/02/13 04:30:19;;;;;;;38.50;19.90;;;2.70;99.90;;;;;;5054047;28;20029;-64
2023/02/13 04:32:45;;;;;;;34.23;17.97;;;2.70;99.90;;;;;;5053803;28;20056;-64
2023/02/13 04:35:12;;;;;;;37.10;18.57;;;2.80;99.90;;;;;;5053525;28;20033;-64
2023/02/13 04:37:38;;;;;;;36.75;18.83;;;2.70;99.90;;;;;;5053444;28;20390;-64
2023/02/13 04:40:04;;;;;;;35.63;18.33;;;2.70;99.90;;;;;;5052436;28;20021;-64
2023/02/13 04:42:29;;;;;;;33.53;18.25;;;2.60;99.90;;;;;;5053364;28;20029;-64
2023/02/13 04:44:55;;;;;;;35.17;18.70;;;2.60;99.90;;;;;;5054983;28;20025;-63
2023/02/13 04:47:20;;;;;;;33.53;18.50;;;2.60;99.90;;;;;;5060510;28;20028;-64
2023/02/13 04:49:46;;;;;;;35.60;18.73;;;2.50;99.90;;;;;;5054612;28;20036;-64
2023/02/13 04:52:14;;;;;;;36.50;20.50;;;2.50;99.90;;;;;;5054835;28;20021;-64
2023/02/13 04:54:39;;;;;;;38.03;19.30;;;2.40;99.90;;;;;;5055218;28;20030;-64
2023/02/13 04:57:05;;;;;;;35.40;18.87;;;2.40;99.90;;;;;;5053653;28;20033;-64
2023/02/13 04:59:30;;;;;;;35.97;19.17;;;2.40;99.90;;;;;;5052885;28;20029;-64
2023/02/13 05:01:58;;;;;;;35.40;18.70;;;2.30;99.90;;;;;;5053308;28;20032;-63
2023/02/13 05:04:24;;;;;;;36.35;18.75;;;2.30;99.90;;;;;;5053240;28;20025;-64
2023/02/13 05:06:50;;;;;;;39.55;19.50;;;2.30;99.90;;;;;;5053299;28;20017;-64
2023/02/13 05:09:15;;;;;;;37.55;19.38;;;2.30;99.90;;;;;;5053294;28;20386;-64
2023/02/13 05:11:41;;;;;;;35.20;17.93;;;2.30;99.90;;;;;;5053020;28;20390;-64
2023/02/13 05:14:06;;;;;;;34.97;18.40;;;2.30;99.90;;;;;;5053263;28;20025;-64
2023/02/13 05:16:32;;;;;;;36.53;18.20;;;2.20;99.90;;;;;;5035091;28;20029;-64
2023/02/13 05:18:58;;;;;;;33.38;18.02;;;2.20;99.90;;;;;;5053325;28;20264;-64
2023/02/13 05:24:07;;;;;;;34.85;18.17;;;2.10;99.90;;;;;;5054261;28;20032;-63
2023/02/13 05:26:33;;;;;;;31.83;17.90;;;2.20;99.90;;;;;;5051620;28;20017;-63
2023/02/13 05:31:43;;;;;;;35.88;17.92;;;2.20;99.90;;;;;;5050984;28;20447;-64
2023/02/13 05:34:08;;;;;;;35.80;18.73;;;2.20;99.90;;;;;;5052566;28;20032;-64
2023/02/13 05:36:34;;;;;;;38.47;19.27;;;2.20;99.90;;;;;;5052686;28;20558;-64
2023/02/13 05:38:59;;;;;;;35.30;18.03;;;2.20;99.90;;;;;;5051435;28;20425;-64
2023/02/13 05:41:25;;;;;;;30.70;16.77;;;2.20;99.90;;;;;;5045055;28;20028;-64
2023/02/13 05:43:51;;;;;;;33.28;18.80;;;2.10;99.90;;;;;;5040216;28;20064;-64
2023/02/13 05:46:17;;;;;;;32.17;16.67;;;2.20;99.90;;;;;;5070980;28;20056;-63
2023/02/13 05:48:42;;;;;;;30.70;18.13;;;2.20;99.90;;;;;;5061429;28;20074;-64
2023/02/13 05:51:08;;;;;;;34.83;18.40;;;2.20;99.90;;;;;;5052729;28;20036;-64
2023/02/13 05:53:34;;;;;;;34.23;16.87;;;2.10;99.90;;;;;;5052936;28;20437;-65
2023/02/13 05:56:01;;;;;;;32.08;18.30;;;2.10;99.90;;;;;;5053131;28;20078;-64
2023/02/13 05:58:27;;;;;;;37.80;18.38;;;2.00;99.90;;;;;;5052937;28;20507;-64
2023/02/13 06:00:55;;;;;;;32.22;17.15;;;2.10;99.90;;;;;;5053106;28;20029;-63
2023/02/13 06:03:21;;;;;;;31.70;17.08;;;2.10;99.90;;;;;;5045167;28;20427;-64
2023/02/13 06:05:46;;;;;;;36.17;17.80;;;2.10;99.90;;;;;;5048421;28;20111;-64
2023/02/13 06:08:12;;;;;;;33.37;17.77;;;2.10;99.90;;;;;;5052282;28;20104;-64
2023/02/13 06:10:37;;;;;;;34.57;18.77;;;2.00;99.90;;;;;;5053591;28;20198;-65
2023/02/13 06:13:03;;;;;;;31.70;17.27;;;2.00;99.90;;;;;;5056309;28;20028;-64
2023/02/13 06:15:29;;;;;;;33.73;18.73;;;2.10;99.90;;;;;;5056971;28;20079;-64
2023/02/13 06:17:54;;;;;;;34.07;18.10;;;2.00;99.90;;;;;;5056235;28;20075;-64
2023/02/13 06:20:20;;;;;;;31.27;16.93;;;2.00;99.90;;;;;;5056012;28;20043;-64
2023/02/13 06:22:52;;;;;;;34.27;17.90;;;2.00;99.90;;;;;;5054400;28;20033;-65
2023/02/13 06:25:18;;;;;;;35.33;17.10;;;2.00;99.90;;;;;;5035748;28;20029;-63
2023/02/13 06:27:44;;;;;;;36.70;19.33;;;2.00;99.90;;;;;;5050407;28;20021;-63
2023/02/13 06:30:10;;;;;;;31.52;17.15;;;2.00;99.90;;;;;;5049326;28;20034;-62
2023/02/13 06:32:35;;;;;;;33.50;17.23;;;2.00;99.90;;;;;;5038338;28;20577;-65
2023/02/13 06:35:01;;;;;;;34.40;17.80;;;2.00;99.90;;;;;;5055728;28;20107;-63
2023/02/13 06:37:27;;;;;;;32.63;17.50;;;2.00;99.90;;;;;;5056141;28;20129;-64
2023/02/13 06:39:52;;;;;;;35.87;18.37;;;1.90;99.90;;;;;;5056563;28;20441;-64
2023/02/13 06:42:18;;;;;;;37.33;18.07;;;2.00;99.90;;;;;;5055988;28;20032;-63
2023/02/13 06:44:43;;;;;;;31.77;18.60;;;2.10;99.90;;;;;;5069845;28;20032;-64
2023/02/13 06:47:09;;;;;;;30.10;16.10;;;2.10;99.90;;;;;;5075567;28;20056;-63
2023/02/13 06:49:35;;;;;;;29.93;16.93;;;2.20;99.90;;;;;;5056826;28;20033;-65
2023/02/13 06:52:00;;;;;;;32.90;17.60;;;2.20;99.90;;;;;;5037430;28;20354;-61
2023/02/13 06:54:26;;;;;;;33.23;16.43;;;2.20;99.90;;;;;;5055466;28;20037;-62
2023/02/13 06:56:52;;;;;;;30.15;16.38;;;2.20;99.90;;;;;;5055330;28;20029;-62
2023/02/13 06:59:17;;;;;;;32.77;17.67;;;2.20;99.90;;;;;;5055476;28;20060;-62
2023/02/13 07:01:43;;;;;;;28.43;16.17;;;2.20;99.90;;;;;;5055183;28;20470;-61
2023/02/13 07:04:08;;;;;;;33.13;18.07;;;2.20;99.90;;;;;;5055303;28;20029;-61
2023/02/13 07:06:34;;;;;;;33.20;16.93;;;2.20;99.90;;;;;;5055100;28;20029;-61
2023/02/13 07:09:03;;;;;;;34.87;17.80;;;2.20;99.90;;;;;;5055056;28;20503;-62
2023/02/13 07:11:29;;;;;;;33.78;18.00;;;2.30;99.90;;;;;;5054981;28;20445;-62
2023/02/13 07:13:55;;;;;;;38.22;17.15;;;2.30;99.90;;;;;;5055148;28;20086;-62
2023/02/13 07:16:21;;;;;;;32.38;17.45;;;2.30;99.90;;;;;;5055150;28;20033;-61
2023/02/13 07:18:47;;;;;;;35.03;18.48;;;2.40;99.90;;;;;;5055392;28;20033;-61
2023/02/13 07:21:12;;;;;;;34.13;17.70;;;2.40;99.90;;;;;;5054987;28;20045;-61
2023/02/13 07:23:38;;;;;;;33.30;17.60;;;2.40;99.90;;;;;;5054960;28;20031;-61
2023/02/13 07:26:04;;;;;;;29.80;17.93;;;2.50;99.90;;;;;;5055240;28;20100;-60
2023/02/13 07:28:29;;;;;;;33.57;17.50;;;2.50;99.90;;;;;;5054851;28;20027;-61
2023/02/13 07:30:55;;;;;;;31.47;16.97;;;2.50;99.90;;;;;;5055694;28;20258;-62
2023/02/13 07:33:21;;;;;;;35.83;17.88;;;2.40;99.90;;;;;;5055102;28;20067;-62
2023/02/13 07:35:47;;;;;;;36.25;18.63;;;2.50;99.90;;;;;;5036402;28;20029;-62
2023/02/13 07:38:13;;;;;;;36.97;18.70;;;2.50;99.90;;;;;;5054755;28;20056;-62
2023/02/13 07:40:39;;;;;;;34.20;18.75;;;2.60;99.90;;;;;;5054451;28;20029;-62
2023/02/13 07:43:04;;;;;;;33.33;18.43;;;2.70;99.90;;;;;;5054460;28;20033;-62
2023/02/13 07:45:30;;;;;;;37.53;18.90;;;2.70;99.90;;;;;;5053291;28;20386;-61
2023/02/13 07:47:56;;;;;;;33.63;18.03;;;2.80;99.90;;;;;;5054428;28;20036;-62
2023/02/13 07:50:22;;;;;;;34.03;17.95;;;2.80;99.90;;;;;;5054045;28;20025;-61
2023/02/13 07:53:00;;;;;;;32.80;16.57;;;2.80;99.90;;;;;;5054152;28;20078;-62
2023/02/13 07:55:26;;;;;;;36.85;20.23;;;2.80;99.90;;;;;;5054023;28;20263;-62
2023/02/13 07:57:51;;;;;;;38.13;18.85;;;2.90;99.90;;;;;;5054108;28;20389;-61
2023/02/13 08:00:18;;;;;;;37.33;20.23;;;2.90;99.90;;;;;;5054019;28;20473;-58
2023/02/13 08:02:44;;;;;;;32.22;17.55;;;2.90;99.90;;;;;;5054343;28;20032;-61
2023/02/13 08:05:10;;;;;;;33.60;18.85;;;3.00;99.90;;;;;;5053933;28;20044;-61
2023/02/13 08:07:35;;;;;;;32.13;17.87;;;3.10;99.90;;;;;;5054564;28;20099;-62
2023/02/13 08:12:45;;;;;;;33.38;17.77;;;3.10;99.90;;;;;;5054175;28;20087;-60
2023/02/13 08:15:12;;;;;;;34.30;17.90;;;3.20;99.90;;;;;;5052414;28;20474;-61
2023/02/13 08:17:38;;;;;;;35.97;19.45;;;3.20;99.90;;;;;;5053772;28;20049;-61
2023/02/13 08:20:08;;;;;;;31.37;18.17;;;3.20;99.90;;;;;;5053689;28;20497;-61
2023/02/13 08:22:35;;;;;;;35.92;18.88;;;3.30;99.90;;;;;;5053482;28;20035;-61
2023/02/13 08:25:01;;;;;;;31.10;16.63;;;3.40;99.90;;;;;;5035875;28;20104;-62
2023/02/13 08:27:29;;;;;;;33.37;17.43;;;3.50;99.90;;;;;;5053402;28;20528;-62
2023/02/13 08:29:55;;;;;;;28.83;16.13;;;3.60;99.90;;;;;;5053349;28;20478;-59
2023/02/13 08:32:21;;;;;;;35.85;18.33;;;3.60;99.90;;;;;;5053410;28;20025;-61
2023/02/13 08:34:47;;;;;;;35.13;18.08;;;3.60;99.90;;;;;;5052935;28;20068;-62
2023/02/13 08:37:12;;;;;;;32.50;17.90;;;3.70;99.90;;;;;;5054096;28;20056;-60
2023/02/13 08:39:38;;;;;;;33.13;18.00;;;3.70;99.90;;;;;;5052766;28;20508;-62
2023/02/13 08:42:03;;;;;;;29.53;17.23;;;3.70;99.90;;;;;;5052512;28;20441;-63
2023/02/13 08:44:29;;;;;;;29.13;16.10;;;3.80;99.90;;;;;;5054186;28;20370;-62
2023/02/13 08:46:55;;;;;;;28.53;15.40;;;3.90;99.90;;;;;;5053980;28;20466;-64
2023/02/13 08:49:20;;;;;;;29.52;16.23;;;4.00;99.90;;;;;;5052966;28;20098;-62
2023/02/13 08:51:46;;;;;;;28.03;17.07;;;4.00;99.90;;;;;;5053187;28;20375;-62
2023/02/13 08:54:11;;;;;;;32.33;16.73;;;4.10;99.90;;;;;;5053277;28;20490;-62
2023/02/13 08:56:37;;;;;;;33.17;17.70;;;4.10;99.90;;;;;;5053013;28;20037;-62
2023/02/13 08:59:02;;;;;;;35.70;18.50;;;4.10;99.90;;;;;;5053143;28;20029;-61
2023/02/13 09:01:28;;;;;;;31.17;16.30;;;4.20;99.90;;;;;;5052879;28;20029;-62
2023/02/13 09:03:54;;;;;;;25.70;16.17;;;4.20;99.90;;;;;;5052901;28;20024;-62
2023/02/13 09:06:20;;;;;;;30.08;16.25;;;4.30;99.90;;;;;;5052667;28;20388;-62
2023/02/13 09:08:46;;;;;;;30.67;16.42;;;4.50;99.90;;;;;;5052787;28;20103;-60
2023/02/13 09:11:11;;;;;;;29.00;16.33;;;4.60;99.90;;;;;;5052893;28;20100;-61
2023/02/13 09:13:37;;;;;;;26.63;14.03;;;4.70;99.90;;;;;;5053387;28;20473;-62
2023/02/13 09:16:05;;;;;;;35.27;15.57;;;4.60;99.90;;;;;;5053304;28;20036;-62
2023/02/13 09:18:31;;;;;;;28.40;14.60;;;4.70;99.90;;;;;;5052857;28;20159;-63
2023/02/13 09:21:03;;;;;;;31.42;14.68;;;4.80;99.90;;;;;;5052166;28;20029;-62
2023/02/13 09:23:33;;;;;;;25.23;13.63;;;4.70;99.90;;;;;;5052545;28;20144;-62
2023/02/13 09:26:00;;;;;;;22.67;13.18;;;4.80;99.90;;;;;;5052469;28;20029;-61
2023/02/13 09:28:26;;;;;;;23.25;13.95;;;4.80;99.90;;;;;;5052606;28;20024;-60
2023/02/13 09:30:52;;;;;;;22.63;14.00;;;4.90;99.90;;;;;;5052516;28;20029;-62
2023/02/13 09:33:17;;;;;;;22.60;13.33;;;4.70;99.90;;;;;;5052874;28;20036;-62
2023/02/13 09:35:43;;;;;;;22.63;13.20;;;4.80;99.90;;;;;;5052554;28;20037;-62
2023/02/13 09:38:08;;;;;;;23.03;14.03;;;4.70;99.90;;;;;;5052925;28;20473;-62
2023/02/13 09:40:36;;;;;;;24.37;14.47;;;4.60;99.90;;;;;;5052874;28;20029;-62
2023/02/13 09:43:13;;;;;;;20.67;13.15;;;4.80;99.90;;;;;;5052189;28;20541;-62
2023/02/13 09:45:39;;;;;;;22.15;12.98;;;5.60;99.90;;;;;;5055489;28;20052;-62
2023/02/13 09:48:05;;;;;;;19.70;13.05;;;6.10;99.90;;;;;;5056393;28;20031;-62
2023/02/13 09:50:33;;;;;;;20.50;12.38;;;7.80;99.90;;;;;;5057594;28;20433;-62
2023/02/13 09:53:00;;;;;;;22.10;13.07;;;9.00;99.90;;;;;;5059806;28;20110;-62
2023/02/13 09:55:51;;;;;;;18.38;12.27;;;10.90;99.90;;;;;;5060464;28;20024;-62
2023/02/13 09:58:40;;;;;;;17.67;12.07;;;10.80;99.90;;;;;;5060102;28;20063;-63
2023/02/13 10:01:18;;;;;;;21.80;14.35;;;9.80;99.90;;;;;;5057334;28;20029;-62
2023/02/13 10:04:11;;;;;;;19.83;12.85;;;8.70;99.90;;;;;;5056936;28;20386;-62
2023/02/13 10:06:48;;;;;;;25.80;14.60;;;7.60;99.90;;;;;;5056153;28;20028;-62
2023/02/13 10:09:52;;;;;;;23.58;14.57;;;6.80;99.90;;;;;;5038389;28;20025;-63
2023/02/13 10:12:25;;;;;;;21.63;14.65;;;7.40;99.90;;;;;;5056145;28;20036;-62
2023/02/13 10:15:11;;;;;;;22.63;14.65;;;7.70;99.90;;;;;;5056109;28;20547;-63
2023/02/13 10:18:00;;;;;;;22.55;14.63;;;8.30;99.90;;;;;;5054032;28;20040;-63
2023/02/13 10:20:34;;;;;;;23.42;14.48;;;9.10;99.90;;;;;;5035993;28;20411;-63
2023/02/13 10:23:31;;;;;;;21.95;14.27;;;9.90;99.90;;;;;;5034580;28;20038;-63
2023/02/13 10:26:01;;;;;;;21.15;14.52;;;10.40;99.90;;;;;;5035830;28;20025;-63
2023/02/13 10:30:03;;;;;;;21.88;14.77;;;10.20;99.90;;;;;;5036301;28;20044;-63
2023/02/13 10:31:38;;;;;;;22.73;15.05;;;10.10;99.90;;;;;;5035604;28;20029;-62
2023/02/13 10:34:10;;;;;;;20.80;14.30;;;10.10;99.90;;;;;;5034493;28;20079;-62
2023/02/13 10:36:42;;;;;;;21.77;14.80;;;10.30;99.90;;;;;;5035621;28;20026;-62
2023/02/13 10:39:22;;;;;;;22.13;14.88;;;10.10;99.90;;;;;;5035907;28;20172;-63
2023/02/13 10:41:52;;;;;;;20.52;14.05;;;10.50;99.90;;;;;;5035589;28;20033;-63
2023/02/13 10:44:56;;;;;;;23.55;14.88;;;11.10;99.90;;;;;;5035759;28;20041;-63
2023/02/13 10:47:55;;;;;;;24.42;16.52;;;10.60;99.90;;;;;;5034336;28;20022;-64
2023/02/13 10:50:38;;;;;;;22.38;15.05;;;10.60;99.90;;;;;;5058134;28;20032;-63
2023/02/13 10:53:33;;;;;;;23.08;15.00;;;11.80;99.90;;;;;;5058303;28;20017;-63
2023/02/13 10:56:16;;;;;;;21.38;15.98;;;12.40;99.90;;;;;;5056915;28;20090;-64
2023/02/13 10:59:05;;;;;;;24.50;15.30;;;12.10;99.90;;;;;;5056788;28;20025;-63
2023/02/13 11:01:48;;;;;;;21.23;14.13;;;12.90;99.90;;;;;;5057597;28;20028;-63
2023/02/13 11:04:17;;;;;;;20.88;14.63;;;13.70;98.20;;;;;;5056689;28;20100;-64
2023/02/13 11:06:57;;;;;;;19.63;14.57;;;14.40;96.90;;;;;;5056800;28;20033;-63
2023/02/13 11:09:23;;;;;;;17.95;14.32;;;14.60;95.20;;;;;;5038866;28;20069;-62
2023/02/13 11:11:49;;;;;;;21.73;14.95;;;14.60;95.70;;;;;;5056536;28;20512;-63
2023/02/13 11:14:16;;;;;;;;;;;14.80;95.40;;;;;;5057451;28;20385;-63
2023/02/13 11:17:06;;;;;;;19.48;14.05;;;14.10;95.90;;;;;;5056851;28;19912;-63
2023/02/13 11:19:36;;;;;;;19.85;13.73;;;14.50;95.60;;;;;;5055788;28;20389;-63
2023/02/13 11:22:10;;;;;;;20.15;14.50;;;13.90;96.10;;;;;;5054646;28;20071;-62
2023/02/13 11:24:40;;;;;;;24.48;16.55;;;12.80;96.90;;;;;;5055184;28;20036;-61
2023/02/13 11:27:11;;;;;;;24.35;16.80;;;11.40;99.60;;;;;;5055461;28;20051;-61
2023/02/13 11:29:54;;;;;;;25.67;16.17;;;10.50;99.90;;;;;;5055088;28;20025;-64
2023/02/13 11:32:23;;;;;;;26.85;15.88;;;9.70;99.90;;;;;;5055372;28;20029;-63
2023/02/13 11:34:50;;;;;;;27.02;15.85;;;9.30;99.90;;;;;;5055334;28;20029;-63
2023/02/13 11:37:27;;;;;;;25.52;15.93;;;8.90;99.90;;;;;;5053810;28;20036;-63
2023/02/13 11:39:56;;;;;;;26.00;15.77;;;8.50;99.90;;;;;;5054853;28;20084;-62
2023/02/13 11:42:30;;;;;;;31.00;16.48;;;8.30;99.90;;;;;;5054567;28;20017;-63
2023/02/13 11:45:02;;;;;;;27.45;17.15;;;8.40;99.90;;;;;;5054839;28;20053;-63
2023/02/13 11:47:34;;;;;;;30.15;17.25;;;8.20;99.90;;;;;;5053205;28;20035;-60
2023/02/13 11:50:00;;;;;;;29.35;16.50;;;7.90;99.90;;;;;;5053918;28;20017;-62
2023/02/13 11:52:30;;;;;;;25.77;16.02;;;7.90;99.90;;;;;;5054321;28;20028;-63
2023/02/13 11:55:23;;;;;;;27.27;16.45;;;7.80;99.90;;;;;;5054513;28;20028;-61
2023/02/13 11:58:02;;;;;;;31.60;16.88;;;7.90;99.90;;;;;;5054460;28;20056;-61
2023/02/13 12:00:36;;;;;;;25.27;15.75;;;8.10;99.90;;;;;;5055038;28;20028;-63
2023/02/13 12:03:23;;;;;;;28.38;16.08;;;8.20;99.90;;;;;;5055594;28;20020;-62
2023/02/13 12:06:04;;;;;;;24.08;15.80;;;8.10;99.90;;;;;;5036455;28;20424;-62
2023/02/13 12:08:32;;;;;;;29.05;16.73;;;8.10;99.90;;;;;;5053677;28;20056;-62
2023/02/13 12:10:59;;;;;;;30.33;16.67;;;7.90;99.90;;;;;;5053822;28;20049;-63
2023/02/13 12:13:37;;;;;;;30.92;16.92;;;7.90;99.90;;;;;;5054629;28;20112;-62
2023/02/13 12:16:12;;;;;;;28.33;17.75;;;8.10;99.90;;;;;;5055009;28;20100;-62
2023/02/13 12:18:46;;;;;;;30.95;18.23;;;8.10;99.90;;;;;;5054382;28;20017;-62
2023/02/13 12:21:40;;;;;;;26.73;15.65;;;8.10;99.90;;;;;;5053138;28;20029;-62
2023/02/13 12:24:40;;;;;;;28.10;16.75;;;8.30;99.90;;;;;;5053933;28;20013;-63
2023/02/13 12:27:15;;;;;;;30.40;16.88;;;8.50;99.90;;;;;;5053835;28;20017;-62
2023/02/13 12:30:03;;;;;;;29.83;17.85;;;8.50;99.90;;;;;;5055137;28;20017;-61
2023/02/13 12:32:45;;;;;;;27.17;15.75;;;8.50;99.90;;;;;;5053505;28;20028;-61
2023/02/13 12:35:26;;;;;;;22.85;14.45;;;8.50;99.90;;;;;;5053579;28;20028;-63
2023/02/13 12:38:16;;;;;;;24.55;14.02;;;8.80;99.90;;;;;;5053754;28;20078;-61
2023/02/13 12:41:06;;;;;;;22.00;14.05;;;8.90;99.90;;;;;;5053691;28;20075;-62
2023/02/13 12:44:02;;;;;;;18.55;12.18;;;8.90;99.90;;;;;;5054167;28;20110;-62
2023/02/13 12:46:51;;;;;;;21.67;13.38;;;8.90;99.90;;;;;;5053783;28;20412;-62
2023/02/13 12:49:35;;;;;;;27.75;16.95;;;8.90;99.90;;;;;;5054175;28;20020;-62
2023/02/13 12:52:28;;;;;;;21.38;13.02;;;8.90;99.90;;;;;;5053327;28;20025;-62
2023/02/13 12:55:23;;;;;;;24.20;15.48;;;9.10;99.90;;;;;;5053685;28;20465;-63
2023/02/13 12:58:17;;;;;;;25.42;15.32;;;9.20;99.90;;;;;;5051785;28;20029;-62
2023/02/13 13:01:08;;;;;;;19.80;12.63;;;9.40;99.90;;;;;;5033074;28;20039;-62
2023/02/13 13:03:58;;;;;;;22.08;13.50;;;9.50;99.90;;;;;;5053494;28;20035;-62
2023/02/13 13:06:45;;;;;;;22.00;13.88;;;9.40;99.90;;;;;;5053008;28;20028;-61
2023/02/13 13:09:57;;;;;;;31.20;18.38;;;9.50;99.90;;;;;;5053508;28;20017;-60
2023/02/13 13:12:29;;;;;;;20.65;12.63;;;9.60;99.90;;;;;;5011382;28;20032;-61
2023/02/13 13:15:04;;;;;;;19.48;12.35;;;9.70;99.90;;;;;;5011994;28;20503;-62
2023/02/13 13:18:01;;;;;;;20.13;11.95;;;9.80;99.90;;;;;;4995087;28;20038;-60
2023/02/13 13:20:44;;;;;;;18.48;12.18;;;10.00;99.90;;;;;;5011614;28;20426;-67
2023/02/13 13:23:41;;;;;;;21.58;12.93;;;9.90;99.90;;;;;;5011688;28;20487;-76
2023/02/13 13:26:30;;;;;;;24.38;12.90;;;9.90;99.90;;;;;;4994653;28;20026;-72
2023/02/13 13:28:59;;;;;;;19.08;12.40;;;9.80;99.90;;;;;;4996354;28;20029;-74
2023/02/13 13:31:26;;;;;;;18.48;11.43;;;9.90;99.90;;;;;;5012216;28;20076;-73
2023/02/13 13:33:59;;;;;;;23.42;13.27;;;9.90;99.90;;;;;;4997713;28;20467;-75
2023/02/13 13:36:45;;;;;;;22.33;13.50;;;10.00;99.90;;;;;;4999610;28;20079;-75
2023/02/13 13:39:29;;;;;;;23.13;12.80;;;9.90;99.90;;;;;;5012717;28;20026;-72
2023/02/13 13:42:15;;;;;;;20.45;12.95;;;10.00;99.90;;;;;;4996920;28;20479;-73
2023/02/13 13:45:00;;;;;;;22.67;13.05;;;10.00;99.90;;;;;;5034255;28;20037;-71
2023/02/13 13:47:38;;;;;;;20.15;12.73;;;9.90;99.90;;;;;;5034179;28;20029;-74
2023/02/13 13:50:05;;;;;;;40.72;21.42;;;9.90;99.90;;;;;;5034057;28;20057;-73
2023/02/13 13:52:34;;;;;;;29.48;16.48;;;10.10;99.90;;;;;;5033133;28;20426;-68